Forside
METAR-TAF:

METAR-TAF

Lufthavne :

Roskilde Lufthavn

Roskilde, Danmark

Breddekreds: 55-35N, længdekreds: 012-08E, højde: 44 m

Aktuelle vejr

Denne rapport blev lavet for 23 minutter siden, kl. 19:50 UTC
Vind 20 kt fra vest med vindstød på up til 37 kt
Temperatur 5°C
Fugtighed 75%
Tryk 1002 hPa
Sigt 10 km eller mere
let regn

METAR: EKRK 221950Z AUTO 26020G37KT 9999 -RA BKN033/// 05/01 Q1002

Tid: 21:13 (20:13 UTC)

Vejrudsigter

Denne rapport blev lavet for 2 timer og 51 minutter siden, kl. 17:22 UTC
Foreløbig gælder fra 22 på 18 UTC til 23 på 03 UTC
Vind 20 kt fra vest
Sigt 10 km eller mere
Spredte skyer i en højde af 2500 ft
Midlertidig
fra 22 på 18 UTC til 22 på 24 UTC
Vind 25 kt fra vest med vindstød på up til 38 kt
Sigt: 4000 m
Spredte skyer i en højde af 2000 ft, Cumulonimbus.
regnbyger, små hagl
Midlertidig
fra 23 på 00 UTC til 23 på 03 UTC
Vind 22 kt fra vest med vindstød på up til 32 kt

TAF: EKRK 221722Z 2218/2303 27020KT 9999 SCT025 TEMPO 2218/2224 26025G38KT 4000 SHRAGS SCT020CB TEMPO 2300/2303 26022G32KT

Vejrobservationer og prognoser fra mere end 4000 lufthavne (METAR og TAF).

De gule og røde prikker repræsenterer de meteorologiske stationer.

Flyt musen over at se navnet på stationen.

Så klik over at se vejr observationer og prognoser.

At skifte det kort: Klik på de grønne knapper med et sort kors for at zoome ind; på den grønne knap med en bindestreg for at zoome ud; eller på de grønne pile for tilstødende kort.


METAR-TAF: